Pagrindinis puslapis
METAR-TAF:

METAR-TAF

Oro uostai :

Catacamas, Hondūras

platuma: 14-54N, ilguma: 085-56W, Aukštis: 442 m

Dabartinis oras

Ataskaita buvo paskelbta 43 minutes, ne 14:00 UTC
Ramus vėjas
Temperatūra 25°C
Drėgmė 83%
Slėgis 1014 hPa
Matomumas 10 km arba daugiau
Išsisklaidę debesys ne aukštis 2800 ft
Išsisklaidę debesys ne aukštis 7000 ft

METAR: MHCA 211400Z 00000KT 9999 SCT028 SCT070 25/22 Q1014

Laikas: 08:43 (14:43 UTC)


TAF: trūkstamas

Orai ataskaitas ir orų prognozės (METAR, TAF).

turimą stotys yra geltonos ir raudonos taškus žemėlapyje.

Perkelti pele per norėdami pamatyti stoties vardą.

Tada spustelėkite, norėdami matyti oro stebėjimo ir prognozės.

Norėdami pakeisti žemėlapį: spustelėkite ant žalios mygtukų su juodo kryžiaus žemyn,; žalią mygtuką su brūkšneliu, jei norite nutolinti; arba žalių rodyklių gretimoms žemėlapius.


METAR-TAF: